Terminal Aerodrome Forecast
Issued by NWS Jacksonville, FL

Home | Current Version | Previous Version | Text Only | Print | Product List | Glossary On
Versions: 1 2 3 4 5 6 7 8 9 10 11 12 13 14 15 16 17 18 19 20
165
FTUS42 KJAX 232320
TAFSSI
TAF
KSSI 232320Z 2400/2424 05012KT P6SM VCSH SCT025 SCT100
      TEMPO 2400/2401 BKN025
     FM240100 06008KT P6SM SCT020 SCT100
     FM241400 05012G18KT P6SM BKN040=

USA.gov is the U.S. government's official web portal to all federal, state and local government web resources and services.